sensor_id;sensor_type;location;lat;lon;timestamp;pressure;altitude;pressure_sealevel;temperature;humidity
50250;BME280;36133;42.522;27.456;2023-03-08T00:02:17;100567.84;;;9.25;64.86
50250;BME280;36133;42.522;27.456;2023-03-08T00:04:43;100635.75;;;10.25;62.78
50250;BME280;36133;42.522;27.456;2023-03-08T00:07:08;100647.28;;;10.34;62.98
50250;BME280;36133;42.522;27.456;2023-03-08T00:09:36;100613.56;;;10.15;62.12
50250;BME280;36133;42.522;27.456;2023-03-08T00:12:02;100410.97;;;9.23;62.85
50250;BME280;36133;42.522;27.456;2023-03-08T00:14:27;100458.94;;;9.78;61.07
50250;BME280;36133;42.522;27.456;2023-03-08T00:16:53;100591.16;;;10.14;62.59
50250;BME280;36133;42.522;27.456;2023-03-08T00:19:18;100546.81;;;9.58;62.87
50250;BME280;36133;42.522;27.456;2023-03-08T00:21:44;100651.91;;;10.10;63.52
50250;BME280;36133;42.522;27.456;2023-03-08T00:24:10;100464.91;;;9.15;62.81
50250;BME280;36133;42.522;27.456;2023-03-08T00:26:36;100619.44;;;10.04;62.96
50250;BME280;36133;42.522;27.456;2023-03-08T00:29:02;100489.53;;;9.85;60.66
50250;BME280;36133;42.522;27.456;2023-03-08T00:31:27;100620.13;;;10.71;60.27
50250;BME280;36133;42.522;27.456;2023-03-08T00:33:53;100457.78;;;10.02;59.19
50250;BME280;36133;42.522;27.456;2023-03-08T00:36:19;100661.38;;;11.01;59.49
50250;BME280;36133;42.522;27.456;2023-03-08T00:38:46;100651.53;;;10.57;61.05
50250;BME280;36133;42.522;27.456;2023-03-08T00:41:13;100410.66;;;9.32;61.11
50250;BME280;36133;42.522;27.456;2023-03-08T00:43:38;100543.75;;;9.46;62.20
50250;BME280;36133;42.522;27.456;2023-03-08T00:46:06;100624.94;;;10.25;61.99
50250;BME280;36133;42.522;27.456;2023-03-08T00:48:32;100646.72;;;10.38;61.80
50250;BME280;36133;42.522;27.456;2023-03-08T00:50:57;100554.59;;;9.38;62.74
50250;BME280;36133;42.522;27.456;2023-03-08T00:56:46;100579.97;;;10.17;60.24
50250;BME280;36133;42.522;27.456;2023-03-08T00:59:14;100638.34;;;10.18;62.09
50250;BME280;36133;42.522;27.456;2023-03-08T01:01:40;100515.66;;;8.88;64.21
50250;BME280;36133;42.522;27.456;2023-03-08T01:04:05;100442.75;;;8.75;63.50
50250;BME280;36133;42.522;27.456;2023-03-08T01:09:55;100584.19;;;9.61;63.42
50250;BME280;36133;42.522;27.456;2023-03-08T01:12:24;100633.56;;;9.91;63.26
50250;BME280;36133;42.522;27.456;2023-03-08T01:14:51;100618.97;;;9.85;63.59
50250;BME280;36133;42.522;27.456;2023-03-08T01:17:17;100608.19;;;9.71;63.89
50250;BME280;36133;42.522;27.456;2023-03-08T01:19:43;100608.13;;;9.56;64.55
50250;BME280;36133;42.522;27.456;2023-03-08T01:22:08;100622.97;;;10.04;63.55
50250;BME280;36133;42.522;27.456;2023-03-08T01:27:57;100502.63;;;9.44;62.72
50250;BME280;36133;42.522;27.456;2023-03-08T01:30:22;100501.63;;;9.60;62.42
50250;BME280;36133;42.522;27.456;2023-03-08T01:32:48;100574.53;;;9.96;62.41
50250;BME280;36133;42.522;27.456;2023-03-08T01:35:14;100425.50;;;9.43;61.64
50250;BME280;36133;42.522;27.456;2023-03-08T01:37:39;100537.72;;;9.74;62.78
50250;BME280;36133;42.522;27.456;2023-03-08T01:40:06;100593.03;;;9.99;62.67
50250;BME280;36133;42.522;27.456;2023-03-08T01:42:32;100591.88;;;9.49;65.19
50250;BME280;36133;42.522;27.456;2023-03-08T01:44:59;100503.56;;;9.22;64.27
50250;BME280;36133;42.522;27.456;2023-03-08T01:47:27;100340.72;;;8.80;62.65
50250;BME280;36133;42.522;27.456;2023-03-08T01:49:55;100325.97;;;8.76;61.96
50250;BME280;36133;42.522;27.456;2023-03-08T01:52:29;100493.44;;;9.83;61.33
50250;BME280;36133;42.522;27.456;2023-03-08T01:54:57;100221.16;;;8.30;61.20
50250;BME280;36133;42.522;27.456;2023-03-08T01:57:29;100619.53;;;10.91;60.48
50250;BME280;36133;42.522;27.456;2023-03-08T01:59:58;100523.22;;;10.83;59.15
50250;BME280;36133;42.522;27.456;2023-03-08T02:02:31;100622.78;;;11.78;58.67
50250;BME280;36133;42.522;27.456;2023-03-08T02:05:00;100591.84;;;10.52;61.32
50250;BME280;36133;42.522;27.456;2023-03-08T02:07:26;100636.88;;;10.81;61.88
50250;BME280;36133;42.522;27.456;2023-03-08T02:09:51;100630.28;;;10.69;62.17
50250;BME280;36133;42.522;27.456;2023-03-08T02:12:17;100611.53;;;10.46;62.08
50250;BME280;36133;42.522;27.456;2023-03-08T02:14:44;100487.91;;;9.02;63.76
50250;BME280;36133;42.522;27.456;2023-03-08T02:17:10;100614.06;;;10.18;62.64
50250;BME280;36133;42.522;27.456;2023-03-08T02:26:05;100629.78;;;10.30;62.68
50250;BME280;36133;42.522;27.456;2023-03-08T02:28:31;100448.00;;;9.50;61.92
50250;BME280;36133;42.522;27.456;2023-03-08T02:30:57;100526.88;;;10.03;61.47
50250;BME280;36133;42.522;27.456;2023-03-08T02:33:23;100655.19;;;10.35;62.17
50250;BME280;36133;42.522;27.456;2023-03-08T02:35:49;100558.06;;;10.06;61.71
50250;BME280;36133;42.522;27.456;2023-03-08T02:38:16;100564.59;;;9.82;62.24
50250;BME280;36133;42.522;27.456;2023-03-08T02:40:42;100611.75;;;10.30;62.21
50250;BME280;36133;42.522;27.456;2023-03-08T02:43:08;100654.50;;;10.99;60.17
50250;BME280;36133;42.522;27.456;2023-03-08T02:45:34;100652.75;;;10.55;61.03
50250;BME280;36133;42.522;27.456;2023-03-08T02:48:01;100629.94;;;9.84;62.74
50250;BME280;36133;42.522;27.456;2023-03-08T02:53:57;100591.25;;;9.77;63.13
50250;BME280;36133;42.522;27.456;2023-03-08T02:56:22;100628.94;;;9.99;62.74
50250;BME280;36133;42.522;27.456;2023-03-08T02:58:48;100626.03;;;10.60;60.94
50250;BME280;36133;42.522;27.456;2023-03-08T03:01:14;100590.97;;;9.72;62.67
50250;BME280;36133;42.522;27.456;2023-03-08T03:03:45;100633.59;;;10.06;62.89
50250;BME280;36133;42.522;27.456;2023-03-08T03:06:15;100543.41;;;10.44;60.42
50250;BME280;36133;42.522;27.456;2023-03-08T03:08:42;100579.59;;;10.50;60.21
50250;BME280;36133;42.522;27.456;2023-03-08T03:11:25;100649.69;;;10.94;60.02
50250;BME280;36133;42.522;27.456;2023-03-08T03:13:56;100520.59;;;10.47;59.91
50250;BME280;36133;42.522;27.456;2023-03-08T03:16:22;100601.81;;;10.67;60.43
50250;BME280;36133;42.522;27.456;2023-03-08T03:18:48;100475.44;;;10.05;59.26
50250;BME280;36133;42.522;27.456;2023-03-08T03:21:13;100633.31;;;10.81;60.19
50250;BME280;36133;42.522;27.456;2023-03-08T03:23:39;100653.31;;;10.36;61.21
50250;BME280;36133;42.522;27.456;2023-03-08T03:26:07;100532.56;;;10.23;59.71
50250;BME280;36133;42.522;27.456;2023-03-08T03:28:33;100471.03;;;9.67;59.95
50250;BME280;36133;42.522;27.456;2023-03-08T03:30:59;100612.63;;;9.93;62.02
50250;BME280;36133;42.522;27.456;2023-03-08T03:33:25;100543.59;;;9.25;62.82
50250;BME280;36133;42.522;27.456;2023-03-08T03:35:50;100593.59;;;10.24;60.86
50250;BME280;36133;42.522;27.456;2023-03-08T03:38:16;100569.47;;;9.93;61.03
50250;BME280;36133;42.522;27.456;2023-03-08T03:40:41;100648.59;;;10.23;61.48
50250;BME280;36133;42.522;27.456;2023-03-08T03:43:08;100515.34;;;10.09;59.22
50250;BME280;36133;42.522;27.456;2023-03-08T03:45:34;100650.72;;;11.14;58.06
50250;BME280;36133;42.522;27.456;2023-03-08T03:47:59;100644.88;;;11.32;57.51
50250;BME280;36133;42.522;27.456;2023-03-08T03:50:32;100596.84;;;11.13;57.08
50250;BME280;36133;42.522;27.456;2023-03-08T03:52:57;100560.09;;;10.69;57.45
50250;BME280;36133;42.522;27.456;2023-03-08T03:55:23;100583.63;;;10.97;57.04
50250;BME280;36133;42.522;27.456;2023-03-08T03:57:48;100550.13;;;10.70;57.50
50250;BME280;36133;42.522;27.456;2023-03-08T04:00:15;100583.69;;;10.82;57.54
50250;BME280;36133;42.522;27.456;2023-03-08T04:02:40;100423.00;;;9.71;57.66
50250;BME280;36133;42.522;27.456;2023-03-08T04:05:06;100622.88;;;10.12;59.77
50250;BME280;36133;42.522;27.456;2023-03-08T04:07:32;100648.88;;;11.15;57.76
50250;BME280;36133;42.522;27.456;2023-03-08T04:09:58;100590.78;;;9.88;59.77
50250;BME280;36133;42.522;27.456;2023-03-08T04:12:24;100693.03;;;9.14;64.13
50250;BME280;36133;42.522;27.456;2023-03-08T04:14:49;100691.78;;;9.48;63.48
50250;BME280;36133;42.522;27.456;2023-03-08T04:17:15;100667.06;;;9.96;61.49
50250;BME280;36133;42.522;27.456;2023-03-08T04:19:40;100662.06;;;10.08;60.86
50250;BME280;36133;42.522;27.456;2023-03-08T04:22:06;100451.94;;;8.12;62.88
50250;BME280;36133;42.522;27.456;2023-03-08T04:24:31;100462.38;;;8.61;62.22
50250;BME280;36133;42.522;27.456;2023-03-08T04:26:57;100565.03;;;10.00;59.90
50250;BME280;36133;42.522;27.456;2023-03-08T04:29:22;100629.47;;;9.80;60.99
50250;BME280;36133;42.522;27.456;2023-03-08T04:31:48;100633.56;;;9.38;63.04
50250;BME280;36133;42.522;27.456;2023-03-08T04:34:48;100670.78;;;10.10;62.46
50250;BME280;36133;42.522;27.456;2023-03-08T04:37:14;100622.13;;;9.74;61.76
50250;BME280;36133;42.522;27.456;2023-03-08T04:39:39;100646.22;;;9.90;61.91
50250;BME280;36133;42.522;27.456;2023-03-08T04:42:05;100654.88;;;9.86;62.04
50250;BME280;36133;42.522;27.456;2023-03-08T04:44:31;100654.56;;;9.43;64.41
50250;BME280;36133;42.522;27.456;2023-03-08T04:46:56;100639.66;;;9.32;64.95
50250;BME280;36133;42.522;27.456;2023-03-08T04:49:23;100658.50;;;9.55;64.80
50250;BME280;36133;42.522;27.456;2023-03-08T04:51:48;100622.34;;;9.35;64.62
50250;BME280;36133;42.522;27.456;2023-03-08T04:54:14;100623.88;;;9.06;65.75
50250;BME280;36133;42.522;27.456;2023-03-08T04:56:39;100427.56;;;8.13;65.32
50250;BME280;36133;42.522;27.456;2023-03-08T04:59:05;100459.16;;;8.65;64.32
50250;BME280;36133;42.522;27.456;2023-03-08T05:01:30;100530.38;;;9.00;64.07
50250;BME280;36133;42.522;27.456;2023-03-08T05:03:56;100688.28;;;9.99;64.62
50250;BME280;36133;42.522;27.456;2023-03-08T05:06:23;100679.69;;;9.81;64.63
50250;BME280;36133;42.522;27.456;2023-03-08T05:08:50;100563.34;;;9.55;64.00
50250;BME280;36133;42.522;27.456;2023-03-08T05:11:21;100621.09;;;10.05;64.56
50250;BME280;36133;42.522;27.456;2023-03-08T05:13:47;100479.44;;;8.91;64.43
50250;BME280;36133;42.522;27.456;2023-03-08T05:16:13;100707.78;;;11.05;62.61
50250;BME280;36133;42.522;27.456;2023-03-08T05:18:39;100574.13;;;10.43;61.17
50250;BME280;36133;42.522;27.456;2023-03-08T05:21:14;100673.31;;;10.56;62.94
50250;BME280;36133;42.522;27.456;2023-03-08T05:23:40;100700.91;;;11.66;60.67
50250;BME280;36133;42.522;27.456;2023-03-08T05:26:07;100446.97;;;9.66;61.47
50250;BME280;36133;42.522;27.456;2023-03-08T05:28:34;100533.66;;;10.28;61.75
50250;BME280;36133;42.522;27.456;2023-03-08T05:31:11;100708.72;;;10.97;62.14
50250;BME280;36133;42.522;27.456;2023-03-08T05:33:37;100628.16;;;10.50;61.75
50250;BME280;36133;42.522;27.456;2023-03-08T05:36:05;100666.13;;;10.63;63.35
50250;BME280;36133;42.522;27.456;2023-03-08T05:38:31;100652.84;;;10.47;63.61
50250;BME280;36133;42.522;27.456;2023-03-08T05:41:07;100729.84;;;10.57;64.77
50250;BME280;36133;42.522;27.456;2023-03-08T05:43:34;100723.50;;;10.80;63.96
50250;BME280;36133;42.522;27.456;2023-03-08T05:49:22;100732.34;;;10.59;63.90
50250;BME280;36133;42.522;27.456;2023-03-08T05:51:48;100567.28;;;9.96;63.11
50250;BME280;36133;42.522;27.456;2023-03-08T05:54:13;100557.09;;;10.43;62.42
50250;BME280;36133;42.522;27.456;2023-03-08T05:56:39;100644.22;;;11.52;61.75
50250;BME280;36133;42.522;27.456;2023-03-08T05:59:04;100626.97;;;11.53;60.13
50250;BME280;36133;42.522;27.456;2023-03-08T06:01:30;100736.72;;;12.87;59.55
50250;BME280;36133;42.522;27.456;2023-03-08T06:07:20;100562.94;;;13.43;53.72
50250;BME280;36133;42.522;27.456;2023-03-08T06:13:21;100732.38;;;15.04;53.26
50250;BME280;36133;42.522;27.456;2023-03-08T06:15:46;100736.38;;;16.46;49.45
50250;BME280;36133;42.522;27.456;2023-03-08T06:18:12;100740.69;;;16.10;50.04
50250;BME280;36133;42.522;27.456;2023-03-08T06:20:37;100646.25;;;14.98;50.04
50250;BME280;36133;42.522;27.456;2023-03-08T06:23:03;100735.69;;;16.07;49.05
50250;BME280;36133;42.522;27.456;2023-03-08T06:25:28;100739.56;;;15.68;50.30
50250;BME280;36133;42.522;27.456;2023-03-08T06:27:54;100744.97;;;16.25;48.82
50250;BME280;36133;42.522;27.456;2023-03-08T06:30:19;100755.28;;;16.41;48.33
50250;BME280;36133;42.522;27.456;2023-03-08T06:32:45;100752.06;;;17.06;47.37
50250;BME280;36133;42.522;27.456;2023-03-08T06:35:11;100556.03;;;15.58;47.84
50250;BME280;36133;42.522;27.456;2023-03-08T06:37:36;100770.06;;;17.73;45.77
50250;BME280;36133;42.522;27.456;2023-03-08T06:40:02;100728.22;;;17.61;45.69
50250;BME280;36133;42.522;27.456;2023-03-08T06:42:31;100771.22;;;17.17;46.29
50250;BME280;36133;42.522;27.456;2023-03-08T06:44:56;100718.13;;;16.47;47.57
50250;BME280;36133;42.522;27.456;2023-03-08T06:47:22;100756.97;;;17.34;45.77
50250;BME280;36133;42.522;27.456;2023-03-08T06:49:47;100777.13;;;17.63;45.87
50250;BME280;36133;42.522;27.456;2023-03-08T06:52:13;100768.50;;;18.19;44.75
50250;BME280;36133;42.522;27.456;2023-03-08T06:54:39;100777.72;;;17.65;45.68
50250;BME280;36133;42.522;27.456;2023-03-08T06:57:04;100765.69;;;17.54;46.04
50250;BME280;36133;42.522;27.456;2023-03-08T06:59:30;100746.53;;;16.57;47.54
50250;BME280;36133;42.522;27.456;2023-03-08T07:01:55;100704.97;;;16.00;48.68
50250;BME280;36133;42.522;27.456;2023-03-08T07:04:21;100778.16;;;17.02;48.12
50250;BME280;36133;42.522;27.456;2023-03-08T07:06:46;100740.88;;;15.21;51.29
50250;BME280;36133;42.522;27.456;2023-03-08T07:09:12;100783.53;;;15.27;52.97
50250;BME280;36133;42.522;27.456;2023-03-08T07:11:38;100492.22;;;13.31;53.68
50250;BME280;36133;42.522;27.456;2023-03-08T07:14:04;100778.75;;;14.45;55.12
50250;BME280;36133;42.522;27.456;2023-03-08T07:16:29;100774.50;;;14.75;54.94
50250;BME280;36133;42.522;27.456;2023-03-08T07:18:55;100624.41;;;14.73;53.12
50250;BME280;36133;42.522;27.456;2023-03-08T07:21:21;100709.97;;;15.78;52.41
50250;BME280;36133;42.522;27.456;2023-03-08T07:23:49;100670.06;;;16.16;50.84
50250;BME280;36133;42.522;27.456;2023-03-08T07:26:15;100683.34;;;16.85;49.52
50250;BME280;36133;42.522;27.456;2023-03-08T07:28:40;100742.06;;;17.18;49.99
50250;BME280;36133;42.522;27.456;2023-03-08T07:31:09;100794.34;;;20.07;44.57
50250;BME280;36133;42.522;27.456;2023-03-08T07:33:35;100790.00;;;20.78;43.47
50250;BME280;36133;42.522;27.456;2023-03-08T07:36:04;100621.75;;;19.57;42.90
50250;BME280;36133;42.522;27.456;2023-03-08T07:38:29;100724.28;;;21.59;40.30
50250;BME280;36133;42.522;27.456;2023-03-08T07:40:55;100611.72;;;21.38;40.50
50250;BME280;36133;42.522;27.456;2023-03-08T07:43:22;100794.78;;;20.50;43.18
50250;BME280;36133;42.522;27.456;2023-03-08T07:45:47;100742.50;;;20.39;42.06
50250;BME280;36133;42.522;27.456;2023-03-08T07:48:13;100636.03;;;20.53;41.09
50250;BME280;36133;42.522;27.456;2023-03-08T07:50:39;100783.41;;;23.05;38.56
50250;BME280;36133;42.522;27.456;2023-03-08T07:53:04;100777.06;;;20.96;41.76
50250;BME280;36133;42.522;27.456;2023-03-08T07:55:32;100358.28;;;18.78;41.13
50250;BME280;36133;42.522;27.456;2023-03-08T07:57:58;100768.78;;;20.52;42.16
50250;BME280;36133;42.522;27.456;2023-03-08T08:00:24;100780.88;;;21.17;41.74
50250;BME280;36133;42.522;27.456;2023-03-08T08:02:49;100754.34;;;22.40;39.37
50250;BME280;36133;42.522;27.456;2023-03-08T08:05:18;100726.22;;;22.28;37.94
50250;BME280;36133;42.522;27.456;2023-03-08T08:07:46;100429.06;;;18.91;40.60
50250;BME280;36133;42.522;27.456;2023-03-08T08:10:12;100737.28;;;21.20;39.97
50250;BME280;36133;42.522;27.456;2023-03-08T08:12:38;100762.00;;;23.33;36.52
50250;BME280;36133;42.522;27.456;2023-03-08T08:15:04;100729.22;;;24.84;34.32
50250;BME280;36133;42.522;27.456;2023-03-08T08:17:29;100764.63;;;23.65;35.75
50250;BME280;36133;42.522;27.456;2023-03-08T08:19:55;100776.25;;;25.28;33.49
50250;BME280;36133;42.522;27.456;2023-03-08T08:22:23;100631.22;;;26.71;30.98
50250;BME280;36133;42.522;27.456;2023-03-08T08:24:49;100752.28;;;26.07;32.14
50250;BME280;36133;42.522;27.456;2023-03-08T08:27:15;100766.56;;;24.15;34.71
50250;BME280;36133;42.522;27.456;2023-03-08T08:29:40;100785.41;;;26.99;31.10
50250;BME280;36133;42.522;27.456;2023-03-08T08:32:06;100755.53;;;23.95;34.74
50250;BME280;36133;42.522;27.456;2023-03-08T08:34:32;100698.25;;;27.15;30.61
50250;BME280;36133;42.522;27.456;2023-03-08T08:36:57;100769.44;;;28.74;28.68
50250;BME280;36133;42.522;27.456;2023-03-08T08:39:23;100774.53;;;27.08;30.62
50250;BME280;36133;42.522;27.456;2023-03-08T08:41:49;100661.09;;;25.63;32.18
50250;BME280;36133;42.522;27.456;2023-03-08T08:44:14;100692.41;;;28.20;28.64
50250;BME280;36133;42.522;27.456;2023-03-08T08:46:40;100642.56;;;29.11;27.29
50250;BME280;36133;42.522;27.456;2023-03-08T08:49:05;100750.34;;;29.00;27.67
50250;BME280;36133;42.522;27.456;2023-03-08T08:51:31;100767.19;;;28.63;28.85
50250;BME280;36133;42.522;27.456;2023-03-08T08:53:57;100725.16;;;26.38;31.39
50250;BME280;36133;42.522;27.456;2023-03-08T08:56:25;100758.13;;;27.92;29.76
50250;BME280;36133;42.522;27.456;2023-03-08T08:58:51;100744.59;;;28.04;29.76
50250;BME280;36133;42.522;27.456;2023-03-08T09:01:22;100690.72;;;27.91;29.43
50250;BME280;36133;42.522;27.456;2023-03-08T09:03:48;100750.03;;;28.28;29.27
50250;BME280;36133;42.522;27.456;2023-03-08T09:06:16;100575.97;;;26.18;30.36
50250;BME280;36133;42.522;27.456;2023-03-08T09:08:42;100653.06;;;24.68;32.65
50250;BME280;36133;42.522;27.456;2023-03-08T09:11:09;100723.56;;;23.79;35.17
50250;BME280;36133;42.522;27.456;2023-03-08T09:13:35;100682.72;;;25.51;32.50
50250;BME280;36133;42.522;27.456;2023-03-08T09:16:06;100740.53;;;28.48;28.76
50250;BME280;36133;42.522;27.456;2023-03-08T09:18:32;100695.31;;;25.67;32.35
50250;BME280;36133;42.522;27.456;2023-03-08T09:20:59;100527.41;;;26.87;29.36
50250;BME280;36133;42.522;27.456;2023-03-08T09:23:28;100767.75;;;25.74;32.71
50250;BME280;36133;42.522;27.456;2023-03-08T09:25:56;100425.28;;;27.32;28.41
50250;BME280;36133;42.522;27.456;2023-03-08T09:28:22;100481.81;;;26.66;29.95
50250;BME280;36133;42.522;27.456;2023-03-08T09:30:48;100736.06;;;28.00;30.01
50250;BME280;36133;42.522;27.456;2023-03-08T09:33:13;100687.22;;;28.46;29.29
50250;BME280;36133;42.522;27.456;2023-03-08T09:35:39;100520.75;;;28.41;27.74
50250;BME280;36133;42.522;27.456;2023-03-08T09:38:04;100724.88;;;29.07;28.53
50250;BME280;36133;42.522;27.456;2023-03-08T09:40:47;100496.09;;;28.39;27.99
50250;BME280;36133;42.522;27.456;2023-03-08T09:43:26;100534.66;;;28.77;27.42
50250;BME280;36133;42.522;27.456;2023-03-08T09:45:55;100722.50;;;26.81;31.05
50250;BME280;36133;42.522;27.456;2023-03-08T09:48:25;100594.75;;;26.45;31.48
50250;BME280;36133;42.522;27.456;2023-03-08T09:50:56;100610.00;;;27.74;29.92
50250;BME280;36133;42.522;27.456;2023-03-08T09:56:36;100386.25;;;25.45;30.62
50250;BME280;36133;42.522;27.456;2023-03-08T09:59:15;100546.78;;;25.49;32.16
50250;BME280;36133;42.522;27.456;2023-03-08T10:07:41;100728.94;;;26.18;32.39
50250;BME280;36133;42.522;27.456;2023-03-08T10:15:30;100611.41;;;25.87;31.07
50250;BME280;36133;42.522;27.456;2023-03-08T10:20:36;100721.31;;;27.49;30.14
50250;BME280;36133;42.522;27.456;2023-03-08T10:23:22;100406.25;;;27.11;27.90
50250;BME280;36133;42.522;27.456;2023-03-08T10:25:51;100623.66;;;27.70;29.08
50250;BME280;36133;42.522;27.456;2023-03-08T10:28:22;100532.50;;;27.18;29.00
50250;BME280;36133;42.522;27.456;2023-03-08T10:30:53;100711.34;;;30.22;26.93
50250;BME280;36133;42.522;27.456;2023-03-08T10:33:22;100683.00;;;28.35;28.51
50250;BME280;36133;42.522;27.456;2023-03-08T10:36:06;100698.00;;;29.16;27.02
50250;BME280;36133;42.522;27.456;2023-03-08T10:38:35;100655.91;;;31.00;25.08
50250;BME280;36133;42.522;27.456;2023-03-08T10:41:15;100400.16;;;29.54;25.31
50250;BME280;36133;42.522;27.456;2023-03-08T10:46:19;100676.06;;;29.64;26.13
50250;BME280;36133;42.522;27.456;2023-03-08T10:48:46;100674.59;;;30.12;25.59
50250;BME280;36133;42.522;27.456;2023-03-08T10:51:20;100665.81;;;29.51;27.00
50250;BME280;36133;42.522;27.456;2023-03-08T10:54:00;100650.28;;;33.72;22.43
50250;BME280;36133;42.522;27.456;2023-03-08T10:58:58;100623.69;;;27.84;27.91
50250;BME280;36133;42.522;27.456;2023-03-08T11:01:32;100549.41;;;27.67;27.07
50250;BME280;36133;42.522;27.456;2023-03-08T11:04:11;100596.72;;;28.72;26.47
50250;BME280;36133;42.522;27.456;2023-03-08T11:06:38;100570.16;;;31.06;23.88
50250;BME280;36133;42.522;27.456;2023-03-08T11:09:19;100593.91;;;32.57;22.15
50250;BME280;36133;42.522;27.456;2023-03-08T11:11:46;100645.34;;;29.11;25.54
50250;BME280;36133;42.522;27.456;2023-03-08T11:14:11;100600.75;;;29.38;25.38
50250;BME280;36133;42.522;27.456;2023-03-08T11:30:16;100510.09;;;30.30;22.91
50250;BME280;36133;42.522;27.456;2023-03-08T11:32:54;100629.53;;;30.49;23.54
50250;BME280;36133;42.522;27.456;2023-03-08T11:35:34;100295.88;;;26.58;23.91
50250;BME280;36133;42.522;27.456;2023-03-08T11:38:11;100595.72;;;27.67;24.25
50250;BME280;36133;42.522;27.456;2023-03-08T11:40:44;100629.63;;;29.29;23.37
50250;BME280;36133;42.522;27.456;2023-03-08T11:43:25;100620.41;;;33.43;19.04
50250;BME280;36133;42.522;27.456;2023-03-08T11:46:16;100622.81;;;30.42;21.99
50250;BME280;36133;42.522;27.456;2023-03-08T11:52:20;100472.28;;;32.60;18.56
50250;BME280;36133;42.522;27.456;2023-03-08T11:55:35;100604.63;;;32.47;19.54
50250;BME280;36133;42.522;27.456;2023-03-08T11:58:17;100522.47;;;29.45;21.61
50250;BME280;36133;42.522;27.456;2023-03-08T12:00:49;100533.50;;;30.29;20.75
50250;BME280;36133;42.522;27.456;2023-03-08T12:03:22;100602.50;;;33.44;18.79
50250;BME280;36133;42.522;27.456;2023-03-08T12:05:53;100459.06;;;32.81;18.30
50250;BME280;36133;42.522;27.456;2023-03-08T12:08:33;100403.91;;;32.57;18.39
50250;BME280;36133;42.522;27.456;2023-03-08T12:11:03;100291.56;;;29.67;20.20
50250;BME280;36133;42.522;27.456;2023-03-08T12:13:35;100337.22;;;29.92;20.00
50250;BME280;36133;42.522;27.456;2023-03-08T12:16:44;100484.06;;;29.25;21.60
50250;BME280;36133;42.522;27.456;2023-03-08T12:21:51;100435.44;;;28.91;21.44
50250;BME280;36133;42.522;27.456;2023-03-08T12:24:43;100593.06;;;30.77;20.84
50250;BME280;36133;42.522;27.456;2023-03-08T12:32:41;100613.59;;;24.67;28.39
50250;BME280;36133;42.522;27.456;2023-03-08T12:35:23;100448.53;;;23.50;28.89
50250;BME280;36133;42.522;27.456;2023-03-08T12:38:03;100465.13;;;24.10;27.88
50250;BME280;36133;42.522;27.456;2023-03-08T12:41:02;100606.38;;;26.84;25.38
50250;BME280;36133;42.522;27.456;2023-03-08T12:48:30;100609.31;;;27.82;24.05
50250;BME280;36133;42.522;27.456;2023-03-08T12:56:48;100613.22;;;26.49;24.52
50250;BME280;36133;42.522;27.456;2023-03-08T13:01:45;100553.00;;;26.60;24.32
50250;BME280;36133;42.522;27.456;2023-03-08T13:09:43;100609.03;;;27.32;23.56
50250;BME280;36133;42.522;27.456;2023-03-08T13:15:00;100611.16;;;27.03;23.54
50250;BME280;36133;42.522;27.456;2023-03-08T13:17:33;100240.41;;;25.98;22.57
50250;BME280;36133;42.522;27.456;2023-03-08T13:20:13;100527.88;;;27.59;22.42
50250;BME280;36133;42.522;27.456;2023-03-08T13:22:49;100543.06;;;28.49;21.48
50250;BME280;36133;42.522;27.456;2023-03-08T13:25:39;100559.25;;;27.73;22.58
50250;BME280;36133;42.522;27.456;2023-03-08T13:30:48;100154.94;;;25.64;21.91
50250;BME280;36133;42.522;27.456;2023-03-08T13:33:27;100538.56;;;26.20;23.43
50250;BME280;36133;42.522;27.456;2023-03-08T13:38:29;100425.00;;;25.69;23.54
50250;BME280;36133;42.522;27.456;2023-03-08T13:40:56;100589.53;;;26.62;23.92
50250;BME280;36133;42.522;27.456;2023-03-08T13:43:24;100569.88;;;26.16;23.11
50250;BME280;36133;42.522;27.456;2023-03-08T13:45:56;100517.47;;;25.19;24.31
50250;BME280;36133;42.522;27.456;2023-03-08T13:48:26;100530.44;;;25.52;24.10
50250;BME280;36133;42.522;27.456;2023-03-08T13:50:54;100416.78;;;24.72;24.42
50250;BME280;36133;42.522;27.456;2023-03-08T13:53:26;100567.06;;;26.64;23.77
50250;BME280;36133;42.522;27.456;2023-03-08T13:55:58;100553.69;;;26.71;23.39
50250;BME280;36133;42.522;27.456;2023-03-08T13:58:37;100588.88;;;29.46;20.92
50250;BME280;36133;42.522;27.456;2023-03-08T14:01:13;100391.94;;;28.64;20.39
50250;BME280;36133;42.522;27.456;2023-03-08T14:03:39;100588.28;;;28.64;21.60
50250;BME280;36133;42.522;27.456;2023-03-08T14:06:22;100354.28;;;24.52;24.06
50250;BME280;36133;42.522;27.456;2023-03-08T14:08:48;100536.25;;;25.80;24.30
50250;BME280;36133;42.522;27.456;2023-03-08T14:11:26;100541.19;;;27.30;22.55
50250;BME280;36133;42.522;27.456;2023-03-08T14:13:54;100434.38;;;25.15;24.01
50250;BME280;36133;42.522;27.456;2023-03-08T14:18:55;100214.16;;;24.49;23.13
50250;BME280;36133;42.522;27.456;2023-03-08T14:21:28;100185.47;;;23.43;24.46
50250;BME280;36133;42.522;27.456;2023-03-08T14:23:59;100456.03;;;23.14;26.73
50250;BME280;36133;42.522;27.456;2023-03-08T14:26:37;100348.09;;;23.17;26.19
50250;BME280;36133;42.522;27.456;2023-03-08T14:29:16;100202.34;;;22.51;26.13
50250;BME280;36133;42.522;27.456;2023-03-08T14:31:58;100406.44;;;23.24;26.04
50250;BME280;36133;42.522;27.456;2023-03-08T14:34:32;100593.91;;;25.33;25.24
50250;BME280;36133;42.522;27.456;2023-03-08T14:39:46;100587.19;;;25.39;25.68
50250;BME280;36133;42.522;27.456;2023-03-08T14:44:58;100601.72;;;23.51;28.15